LIPQ/TRS METAR and TAF weather

Enter ICAO airport designator
Station Type Date Time Source
LIPQ METAR 2019/06/18 14:50 UTC NOAA

LIPQ 181450Z 23008KT 210V270 9999 FEW050 30/17 Q1013


Station Type Date Time Source
LIPQ Decoded METAR 2019/06/18 14:50 UTC NOAA

Ronchi Dei Legionari, Italy (LIPQ) 45-49N 013-29E 12M
Jun 18, 2019 - 10:50 AM EDT / 2019.06.18 1450 UTC
Wind: from the SW (230 degrees) at 9 MPH (8 KT) (direction variable):0
Visibility: greater than 7 mile(s):0
Sky conditions: mostly clear
Temperature: 86 F (30 C)
Dew Point: 62 F (17 C)
Relative Humidity: 45%
Pressure (altimeter): 29.91 in. Hg (1013 hPa)
ob: LIPQ 181450Z 23008KT 210V270 9999 FEW050 30/17 Q1013
cycle: 15

Station Type Date Time Source
LIPQ TAF 2019/06/18 12:21 UTC NOAA

TAF LIPQ 181100Z 1812/1912 10010KT 9999 FEW030

Example: see airport list